Time;durP1;ratioP1;P1;durP2;ratioP2;P2;SDS_P1;SDS_P2;PMS_P1;PMS_P2;Temp;Humidity;BMP_temperature;BMP_pressure;BME280_temperature;BME280_humidity;BME280_pressure;Samples;Min_cycle;Max_cycle;Signal;HPM_P1;HPM_P2
2023/01/19 00:00:52;;;;;;;16.77;10.30;;;1.20;1.00;;;;;;4873970;29;20479;-66
2023/01/19 00:03:20;;;;;;;13.80;9.47;;;1.30;1.00;;;;;;4880226;29;20315;-66
2023/01/19 00:05:47;;;;;;;12.93;10.10;;;1.30;1.00;;;;;;4874203;29;20245;-66
2023/01/19 00:08:14;;;;;;;17.07;10.60;;;1.30;1.00;;;;;;4881699;29;20197;-65
2023/01/19 00:10:50;;;;;;;15.83;10.10;;;1.30;1.00;;;;;;4882808;29;20260;-66
2023/01/19 00:13:17;;;;;;;15.17;10.37;;;1.30;1.00;;;;;;4882445;29;20216;-66
2023/01/19 00:15:44;;;;;;;14.50;10.33;;;1.30;1.00;;;;;;4882182;29;20274;-73
2023/01/19 00:18:11;;;;;;;17.87;10.67;;;1.20;1.00;;;;;;4866318;29;20296;-67
2023/01/19 00:20:39;;;;;;;14.83;9.93;;;1.20;1.00;;;;;;4883861;29;20230;-66
2023/01/19 00:23:07;;;;;;;16.03;10.00;;;1.30;1.00;;;;;;4883035;29;20201;-66
2023/01/19 00:25:41;;;;;;;17.23;10.17;;;1.30;1.00;;;;;;4881672;29;20207;-66
2023/01/19 00:28:10;;;;;;;14.80;10.43;;;1.20;1.00;;;;;;4882237;29;20213;-66
2023/01/19 00:30:38;;;;;;;17.57;9.87;;;1.20;1.00;;;;;;4866552;29;20870;-66
2023/01/19 00:33:05;;;;;;;17.03;10.57;;;1.10;1.00;;;;;;4882905;29;20221;-66
2023/01/19 00:35:33;;;;;;;15.73;10.40;;;1.10;1.00;;;;;;4874397;29;20280;-66
2023/01/19 00:38:01;;;;;;;16.67;11.17;;;1.00;1.00;;;;;;4882287;29;20206;-66
2023/01/19 00:40:28;;;;;;;15.77;10.40;;;1.10;1.00;;;;;;4881585;29;20573;-66
2023/01/19 00:42:59;;;;;;;17.13;10.27;;;1.30;1.00;;;;;;4882457;29;20236;-65
2023/01/19 00:45:27;;;;;;;19.33;10.80;;;1.30;1.00;;;;;;4872255;29;20200;-65
2023/01/19 00:47:56;;;;;;;15.10;10.27;;;1.30;1.00;;;;;;4883106;29;20631;-66
2023/01/19 00:50:25;;;;;;;14.63;10.90;;;1.20;1.00;;;;;;4883128;29;20344;-65
2023/01/19 00:52:53;;;;;;;14.10;10.77;;;1.20;1.00;;;;;;4874495;29;20225;-65
2023/01/19 00:55:21;;;;;;;15.90;11.43;;;1.20;1.00;;;;;;4866860;29;20206;-65
2023/01/19 00:57:48;;;;;;;15.50;11.37;;;1.30;1.00;;;;;;4883348;29;20250;-65
2023/01/19 01:00:18;;;;;;;15.43;10.67;;;1.30;1.00;;;;;;4873769;29;20280;-66
2023/01/19 01:02:46;;;;;;;12.00;10.00;;;1.20;1.00;;;;;;4881333;29;20633;-64
2023/01/19 01:05:14;;;;;;;17.20;10.90;;;1.20;1.00;;;;;;4880880;29;20241;-67
2023/01/19 01:07:43;;;;;;;12.53;10.20;;;1.20;1.00;;;;;;4872707;29;20237;-64
2023/01/19 01:10:11;;;;;;;12.30;9.73;;;1.20;1.00;;;;;;4882276;29;20257;-66
2023/01/19 01:12:39;;;;;;;15.50;10.67;;;1.30;1.00;;;;;;4866251;29;20224;-65
2023/01/19 01:15:08;;;;;;;12.20;9.57;;;1.20;1.00;;;;;;4885632;29;20561;-65
2023/01/19 01:17:35;;;;;;;17.00;12.33;;;1.10;1.00;;;;;;4885822;29;20287;-65
2023/01/19 01:20:04;;;;;;;14.97;10.33;;;1.10;1.00;;;;;;4868447;29;20607;-65
2023/01/19 01:22:30;;;;;;;14.87;11.03;;;1.20;1.00;;;;;;4875600;29;20268;-64
2023/01/19 01:24:57;;;;;;;14.27;10.47;;;1.20;1.00;;;;;;4875744;29;20212;-64
2023/01/19 01:27:24;;;;;;;13.97;10.67;;;1.10;1.00;;;;;;4877090;29;20260;-64
2023/01/19 01:29:51;;;;;;;13.83;10.80;;;1.20;1.00;;;;;;4872578;29;20750;-65
2023/01/19 01:32:18;;;;;;;12.80;10.33;;;1.40;1.00;;;;;;4884470;29;20251;-64
2023/01/19 01:34:45;;;;;;;16.87;9.93;;;1.30;1.00;;;;;;4885466;29;20646;-64
2023/01/19 01:37:12;;;;;;;15.30;10.43;;;1.30;1.00;;;;;;4884288;29;20350;-64
2023/01/19 01:39:39;;;;;;;20.37;10.97;;;1.20;1.00;;;;;;4887208;29;20229;-65
2023/01/19 01:42:16;;;;;;;15.13;10.70;;;1.10;7.70;;;;;;4884742;29;20217;-65
2023/01/19 01:44:49;;;;;;;15.13;11.00;;;1.10;1.00;;;;;;4885684;29;20645;-68
2023/01/19 01:47:28;;;;;;;12.93;10.23;;;1.10;21.70;;;;;;4876445;29;20332;-66
2023/01/19 01:50:09;;;;;;;26.33;12.50;;;1.10;26.60;;;;;;4886574;29;20284;-67
2023/01/19 01:52:43;;;;;;;18.93;10.97;;;1.30;19.50;;;;;;4884334;29;20225;-66
2023/01/19 01:55:31;;;;;;;17.37;10.63;;;1.40;1.00;;;;;;4885910;29;20198;-65
2023/01/19 01:58:01;;;;;;;12.60;10.17;;;1.50;1.00;;;;;;4879996;29;20213;-65
2023/01/19 02:02:49;;;;;;;16.40;10.83;;;1.40;1.00;;;;;;4873110;29;20726;-65
2023/01/19 02:03:22;;;;;;;15.33;10.43;;;1.50;1.00;;;;;;4886842;29;20744;-65
2023/01/19 02:05:52;;;;;;;19.07;11.63;;;1.60;1.00;;;;;;4885450;29;20248;-65
2023/01/19 02:13:59;;;;;;;18.37;10.43;;;1.80;1.00;;;;;;4886563;29;20296;-66
2023/01/19 02:16:26;;;;;;;16.93;10.57;;;1.90;1.00;;;;;;4876037;29;20265;-65
2023/01/19 02:18:53;;;;;;;14.30;10.20;;;1.90;1.00;;;;;;4886363;29;20233;-65
2023/01/19 02:21:29;;;;;;;15.67;10.47;;;1.90;1.00;;;;;;4884245;29;20680;-65
2023/01/19 02:23:58;;;;;;;17.27;9.80;;;1.90;1.00;;;;;;4885121;29;20677;-65
2023/01/19 02:26:39;;;;;;;13.00;9.57;;;1.90;1.00;;;;;;4885017;29;20663;-66
2023/01/19 02:29:09;;;;;;;13.07;9.17;;;1.90;1.00;;;;;;4867972;29;20257;-65
2023/01/19 02:31:37;;;;;;;14.37;10.30;;;1.90;1.00;;;;;;4885053;29;20198;-64
2023/01/19 02:34:07;;;;;;;15.60;9.67;;;2.00;1.00;;;;;;4885556;29;20312;-67
2023/01/19 02:36:50;;;;;;;13.13;9.80;;;2.00;1.00;;;;;;4868019;29;20213;-68
2023/01/19 02:39:23;;;;;;;12.00;8.57;;;1.80;1.00;;;;;;4884755;29;20212;-69
2023/01/19 02:41:54;;;;;;;14.43;9.57;;;1.70;1.00;;;;;;4870407;29;20272;-68
2023/01/19 02:44:23;;;;;;;15.70;9.73;;;1.70;1.00;;;;;;4869979;29;20677;-68
2023/01/19 02:46:53;;;;;;;14.23;10.57;;;1.70;1.00;;;;;;4884308;29;20210;-68
2023/01/19 02:49:20;;;;;;;12.00;9.17;;;1.70;1.00;;;;;;4886366;29;20200;-67
2023/01/19 02:51:47;;;;;;;15.23;10.57;;;1.80;1.00;;;;;;4868340;29;20205;-72
2023/01/19 02:54:17;;;;;;;15.80;10.43;;;1.90;1.00;;;;;;4875323;29;20304;-70
2023/01/19 02:57:08;;;;;;;16.47;10.47;;;1.90;1.00;;;;;;4882688;29;20280;-69
2023/01/19 02:59:51;;;;;;;15.73;10.40;;;1.90;1.00;;;;;;4885193;29;20248;-67
2023/01/19 03:02:35;;;;;;;14.87;10.50;;;2.00;1.00;;;;;;4885419;29;20202;-67
2023/01/19 03:05:33;;;;;;;15.80;9.90;;;2.00;1.00;;;;;;4884666;29;20245;-68
2023/01/19 03:08:29;;;;;;;19.40;10.47;;;1.90;1.00;;;;;;4883059;29;20220;-67
2023/01/19 03:11:12;;;;;;;15.03;10.37;;;1.90;1.00;;;;;;4866745;29;20316;-68
2023/01/19 03:14:02;;;;;;;15.67;10.63;;;1.90;1.00;;;;;;4882831;29;20228;-68
2023/01/19 03:16:49;;;;;;;14.70;9.20;;;2.00;1.00;;;;;;4875791;29;20201;-68
2023/01/19 03:19:40;;;;;;;13.30;10.20;;;2.10;1.00;;;;;;4866753;29;20225;-72
2023/01/19 03:22:13;;;;;;;14.90;9.53;;;2.00;1.00;;;;;;4881058;29;20702;-71
2023/01/19 03:24:43;;;;;;;21.50;12.10;;;2.10;1.00;;;;;;4866793;29;20206;-69
2023/01/19 03:27:13;;;;;;;17.90;11.17;;;2.10;1.00;;;;;;4884535;29;20206;-67
2023/01/19 03:29:43;;;;;;;15.13;9.40;;;2.00;1.00;;;;;;4885687;29;20193;-67
2023/01/19 03:32:16;;;;;;;18.30;9.10;;;2.10;1.00;;;;;;4883365;29;20292;-67
2023/01/19 03:34:45;;;;;;;14.90;9.30;;;2.20;1.00;;;;;;4884503;29;20219;-67
2023/01/19 03:37:15;;;;;;;14.57;8.67;;;2.20;1.00;;;;;;4875230;29;20288;-67
2023/01/19 03:39:42;;;;;;;13.60;7.70;;;2.10;1.00;;;;;;4884821;29;20202;-70
2023/01/19 03:42:13;;;;;;;13.30;9.03;;;2.20;1.00;;;;;;4868000;29;20197;-66
2023/01/19 03:44:42;;;;;;;11.10;7.80;;;2.20;1.00;;;;;;4882977;29;20208;-66
2023/01/19 03:47:12;;;;;;;13.33;8.17;;;2.30;1.00;;;;;;4882982;29;20206;-66
2023/01/19 03:49:42;;;;;;;13.73;8.63;;;2.30;1.00;;;;;;4868127;29;20206;-69
2023/01/19 03:52:09;;;;;;;13.20;8.33;;;2.30;1.00;;;;;;4866828;29;20237;-65
2023/01/19 03:54:36;;;;;;;13.40;8.27;;;2.20;1.00;;;;;;4877761;29;20280;-65
2023/01/19 03:57:03;;;;;;;14.80;7.80;;;2.30;1.00;;;;;;4885389;29;20292;-66
2023/01/19 03:59:30;;;;;;;11.03;8.10;;;2.30;1.00;;;;;;4867603;29;20693;-66
2023/01/19 04:01:57;;;;;;;18.63;9.77;;;2.30;1.00;;;;;;4886201;29;20292;-67
2023/01/19 04:04:24;;;;;;;12.27;8.37;;;2.30;1.00;;;;;;4875047;29;20229;-67
2023/01/19 04:06:51;;;;;;;11.60;8.13;;;2.30;1.00;;;;;;4884097;29;20237;-68
2023/01/19 04:09:18;;;;;;;10.97;7.77;;;2.30;1.00;;;;;;4885449;29;20197;-68
2023/01/19 04:11:45;;;;;;;12.83;8.03;;;2.40;1.00;;;;;;4882961;29;20344;-69
2023/01/19 04:14:13;;;;;;;11.37;8.33;;;2.30;1.00;;;;;;4882982;29;20272;-70
2023/01/19 04:16:40;;;;;;;13.20;8.00;;;2.20;1.00;;;;;;4868062;29;20212;-71
2023/01/19 04:19:06;;;;;;;14.83;8.07;;;2.30;1.00;;;;;;4883344;29;20827;-69
2023/01/19 04:21:34;;;;;;;12.20;7.53;;;2.30;1.00;;;;;;4866807;29;20237;-70
2023/01/19 04:24:00;;;;;;;11.23;7.40;;;2.30;1.00;;;;;;4866324;29;20200;-69
2023/01/19 04:26:27;;;;;;;9.30;7.33;;;2.30;1.00;;;;;;4885085;29;20636;-67
2023/01/19 04:28:54;;;;;;;14.50;7.53;;;2.40;1.00;;;;;;4884204;29;20201;-68
2023/01/19 04:31:22;;;;;;;9.80;7.37;;;2.40;1.00;;;;;;4859140;29;20209;-69
2023/01/19 04:33:49;;;;;;;10.17;7.30;;;2.40;1.00;;;;;;4882056;29;20320;-69
2023/01/19 04:36:16;;;;;;;13.40;7.13;;;2.40;1.00;;;;;;4882839;29;20241;-70
2023/01/19 04:38:45;;;;;;;17.17;7.37;;;2.40;1.00;;;;;;4884142;29;20694;-70
2023/01/19 04:41:12;;;;;;;9.63;6.90;;;2.50;1.00;;;;;;4884294;29;20213;-68
2023/01/19 04:43:39;;;;;;;10.23;7.27;;;2.50;1.00;;;;;;4884093;29;20667;-68
2023/01/19 04:46:06;;;;;;;12.40;7.10;;;2.60;1.00;;;;;;4883981;29;20216;-70
2023/01/19 04:48:33;;;;;;;13.47;7.87;;;2.50;1.00;;;;;;4884668;29;20311;-71
2023/01/19 04:51:00;;;;;;;12.03;7.50;;;2.50;1.00;;;;;;4888055;29;20537;-70
2023/01/19 04:53:27;;;;;;;12.23;6.70;;;2.50;1.00;;;;;;4888931;29;20241;-70
2023/01/19 04:55:54;;;;;;;12.50;6.80;;;2.50;1.00;;;;;;4887179;29;20231;-67
2023/01/19 04:58:22;;;;;;;13.73;7.53;;;2.50;1.00;;;;;;4888377;29;20209;-69
2023/01/19 05:00:50;;;;;;;10.97;7.50;;;2.50;1.00;;;;;;4883678;29;20296;-69
2023/01/19 05:03:18;;;;;;;11.40;7.23;;;2.50;1.00;;;;;;4872225;29;20329;-68
2023/01/19 05:05:45;;;;;;;13.27;7.47;;;2.50;1.00;;;;;;4884879;29;21194;-69
2023/01/19 05:08:12;;;;;;;13.77;7.70;;;2.50;1.00;;;;;;4856471;29;20689;-68
2023/01/19 05:10:39;;;;;;;11.47;7.80;;;2.50;1.00;;;;;;4887114;29;20635;-68
2023/01/19 05:13:06;;;;;;;11.83;7.13;;;2.40;1.00;;;;;;4870198;29;20267;-69
2023/01/19 05:15:33;;;;;;;8.77;7.43;;;2.40;1.00;;;;;;4871424;29;20205;-68
2023/01/19 05:18:00;;;;;;;10.97;6.90;;;2.40;1.00;;;;;;4886636;29;20718;-67
2023/01/19 05:20:27;;;;;;;11.67;7.07;;;2.40;1.00;;;;;;4859380;29;20202;-68
2023/01/19 05:22:54;;;;;;;13.87;8.10;;;2.30;1.00;;;;;;4869350;29;20197;-65
2023/01/19 05:25:21;;;;;;;12.40;7.77;;;2.20;1.00;;;;;;4885269;29;20212;-66
2023/01/19 05:27:48;;;;;;;11.77;7.47;;;2.20;1.00;;;;;;4868755;29;20276;-68
2023/01/19 05:30:16;;;;;;;11.43;8.00;;;2.00;75.70;;;;;;4886385;29;20247;-67
2023/01/19 05:32:43;;;;;;;13.43;8.30;;;1.80;99.90;;;;;;4885862;29;20285;-66
2023/01/19 05:35:11;;;;;;;12.20;8.30;;;1.70;99.90;;;;;;4886264;29;20257;-66
2023/01/19 05:37:38;;;;;;;13.17;8.53;;;1.50;1.00;;;;;;4885789;29;20229;-66
2023/01/19 05:40:06;;;;;;;16.87;8.70;;;1.40;1.00;;;;;;4876765;29;20228;-66
2023/01/19 05:42:33;;;;;;;14.33;8.90;;;1.40;1.00;;;;;;4886336;29;20280;-66
2023/01/19 05:45:00;;;;;;;13.70;10.47;;;1.30;99.90;;;;;;4859409;29;20216;-66
2023/01/19 05:47:31;;;;;;;18.00;9.77;;;1.30;99.90;;;;;;4878274;29;20580;-66
2023/01/19 05:49:58;;;;;;;14.33;9.47;;;1.30;1.00;;;;;;4885915;29;20204;-66
2023/01/19 05:52:25;;;;;;;14.20;9.30;;;1.20;1.00;;;;;;4865623;29;20658;-66
2023/01/19 05:54:53;;;;;;;15.00;9.23;;;1.20;1.00;;;;;;4886024;29;20688;-66
2023/01/19 05:57:21;;;;;;;14.63;10.00;;;1.20;1.00;;;;;;4885069;29;20214;-67
2023/01/19 05:59:48;;;;;;;11.63;9.60;;;1.20;1.00;;;;;;4884549;29;20255;-68
2023/01/19 06:02:15;;;;;;;11.93;8.97;;;1.30;1.00;;;;;;4885828;29;20225;-67
2023/01/19 06:04:42;;;;;;;15.13;9.67;;;1.20;1.00;;;;;;4883536;29;20324;-68
2023/01/19 06:07:09;;;;;;;15.07;8.90;;;1.20;1.00;;;;;;4885048;29;20193;-68
2023/01/19 06:09:36;;;;;;;15.93;10.00;;;1.30;1.00;;;;;;4883351;29;20209;-67
2023/01/19 06:12:03;;;;;;;14.27;9.70;;;1.30;1.00;;;;;;4886105;29;20293;-67
2023/01/19 06:14:31;;;;;;;14.00;10.10;;;1.30;1.00;;;;;;4874657;29;20225;-67
2023/01/19 06:16:58;;;;;;;17.63;10.27;;;1.30;1.00;;;;;;4886218;29;20198;-68
2023/01/19 06:19:25;;;;;;;12.33;10.10;;;1.30;1.00;;;;;;4875935;29;20297;-67
2023/01/19 06:21:52;;;;;;;15.00;8.87;;;1.30;1.00;;;;;;4885491;29;20565;-68
2023/01/19 06:24:19;;;;;;;13.13;8.93;;;1.30;1.00;;;;;;4884634;29;20312;-67
2023/01/19 06:26:46;;;;;;;12.77;9.60;;;1.30;1.00;;;;;;4886499;29;20205;-67
2023/01/19 06:29:13;;;;;;;16.83;11.37;;;1.30;1.00;;;;;;4884605;29;20681;-66
2023/01/19 06:31:41;;;;;;;14.80;10.83;;;1.30;1.00;;;;;;4884700;29;20204;-69
2023/01/19 06:34:08;;;;;;;16.10;10.50;;;1.30;1.00;;;;;;4876533;29;20681;-68
2023/01/19 06:36:35;;;;;;;13.93;10.40;;;1.30;26.30;;;;;;4884606;29;20221;-69
2023/01/19 06:39:04;;;;;;;11.63;9.87;;;1.30;47.40;;;;;;4884078;29;20245;-68
2023/01/19 06:41:32;;;;;;;15.27;10.10;;;1.20;91.70;;;;;;4870242;29;20560;-67
2023/01/19 06:44:00;;;;;;;14.20;10.47;;;1.20;99.90;;;;;;4881267;29;20725;-65
2023/01/19 06:46:28;;;;;;;10.80;8.80;;;1.20;99.90;;;;;;4875250;29;20202;-67
2023/01/19 06:48:55;;;;;;;10.17;8.80;;;1.20;1.00;;;;;;4873276;29;20225;-69
2023/01/19 06:51:22;;;;;;;12.00;8.93;;;1.20;1.00;;;;;;4885616;29;20193;-69
2023/01/19 06:53:49;;;;;;;13.37;9.00;;;1.20;1.00;;;;;;4876406;29;20209;-70
2023/01/19 06:56:17;;;;;;;10.73;8.13;;;1.10;1.00;;;;;;4872872;29;20614;-67
2023/01/19 06:58:46;;;;;;;11.43;8.67;;;1.10;1.00;;;;;;4884143;29;20209;-67
2023/01/19 07:01:13;;;;;;;13.07;9.00;;;1.00;1.00;;;;;;4886826;29;20201;-67
2023/01/19 07:03:40;;;;;;;11.27;8.70;;;1.00;77.40;;;;;;4876381;29;20232;-68
2023/01/19 07:06:08;;;;;;;10.80;8.97;;;1.00;99.90;;;;;;4862052;29;20241;-65
2023/01/19 07:08:36;;;;;;;11.67;9.07;;;1.00;99.90;;;;;;4865558;29;20261;-67
2023/01/19 07:11:06;;;;;;;13.47;9.33;;;1.00;99.90;;;;;;4849013;29;20707;-66
2023/01/19 07:13:54;;;;;;;13.07;10.20;;;1.10;99.90;;;;;;4876717;29;20691;-67
2023/01/19 07:16:22;;;;;;;13.47;9.60;;;1.00;1.00;;;;;;4865776;29;20260;-67
2023/01/19 07:18:50;;;;;;;12.93;10.17;;;1.10;1.00;;;;;;4879949;29;20205;-67
2023/01/19 07:21:17;;;;;;;12.87;9.03;;;1.10;1.00;;;;;;4864066;29;20848;-67
2023/01/19 07:23:48;;;;;;;12.47;9.43;;;1.10;99.90;;;;;;4877392;29;20696;-66
2023/01/19 07:26:17;;;;;;;11.53;8.40;;;1.00;1.00;;;;;;4863767;29;20306;-66
2023/01/19 07:28:44;;;;;;;12.13;9.00;;;1.00;1.00;;;;;;4860394;29;20224;-66
2023/01/19 07:31:22;;;;;;;11.90;8.50;;;0.90;1.00;;;;;;5074416;27;20304;-68
2023/01/19 07:33:49;;;;;;;10.60;8.47;;;0.90;1.00;;;;;;5072873;28;20222;-68
2023/01/19 07:36:16;;;;;;;9.77;8.30;;;0.90;99.90;;;;;;5071028;28;20263;-67
2023/01/19 07:38:43;;;;;;;13.73;8.63;;;0.90;99.90;;;;;;5071336;28;20537;-66
2023/01/19 07:41:10;;;;;;;9.87;8.13;;;0.90;99.90;;;;;;5052712;28;20210;-66
2023/01/19 07:43:37;;;;;;;11.10;8.40;;;1.00;99.90;;;;;;5055189;28;20222;-67
2023/01/19 07:46:06;;;;;;;9.97;8.47;;;1.00;99.90;;;;;;5073295;28;20599;-67
2023/01/19 07:48:33;;;;;;;9.17;7.83;;;1.00;99.90;;;;;;5072682;28;20527;-66
2023/01/19 07:51:04;;;;;;;9.87;8.30;;;1.00;99.90;;;;;;5072721;28;20199;-66
2023/01/19 07:53:31;;;;;;;10.63;8.33;;;1.10;99.90;;;;;;5068251;28;20182;-67
2023/01/19 07:55:58;;;;;;;12.13;9.07;;;1.10;1.00;;;;;;5068267;28;20595;-67
2023/01/19 07:58:26;;;;;;;12.70;8.77;;;1.10;1.00;;;;;;5073388;28;20226;-67
2023/01/19 08:00:53;;;;;;;12.00;8.40;;;1.10;1.00;;;;;;5070496;28;20549;-67
2023/01/19 08:03:20;;;;;;;13.53;9.57;;;1.10;1.00;;;;;;5083614;28;20309;-71
2023/01/19 08:05:51;;;;;;;14.70;9.43;;;1.20;1.00;;;;;;5047978;28;20191;-67
2023/01/19 08:08:19;;;;;;;13.23;8.80;;;1.10;1.00;;;;;;5051592;28;20836;-68
2023/01/19 08:10:49;;;;;;;13.27;8.83;;;1.20;1.00;;;;;;5084528;28;20356;-67
2023/01/19 08:13:17;;;;;;;11.90;8.77;;;1.20;1.00;;;;;;5053804;28;20184;-67
2023/01/19 08:15:47;;;;;;;13.40;9.93;;;1.20;1.00;;;;;;5050183;28;20276;-66
2023/01/19 08:18:14;;;;;;;13.63;10.53;;;1.10;1.00;;;;;;5046527;28;20182;-66
2023/01/19 08:20:41;;;;;;;13.20;10.27;;;1.10;1.00;;;;;;5053657;28;20195;-66
2023/01/19 08:23:09;;;;;;;13.17;10.73;;;1.10;1.00;;;;;;5050027;28;20254;-66
2023/01/19 08:25:41;;;;;;;16.20;11.93;;;1.10;1.00;;;;;;5047147;28;20234;-67
2023/01/19 08:28:09;;;;;;;17.93;13.60;;;1.10;1.00;;;;;;5046924;28;20248;-68
2023/01/19 08:30:37;;;;;;;16.07;11.93;;;1.10;1.00;;;;;;5048524;28;21187;-66
2023/01/19 08:33:06;;;;;;;13.17;10.83;;;1.20;1.00;;;;;;5050032;28;20220;-66
2023/01/19 08:35:36;;;;;;;16.00;11.43;;;1.10;1.00;;;;;;5068074;28;20203;-66
2023/01/19 08:38:05;;;;;;;15.10;11.70;;;1.20;99.90;;;;;;5034865;28;20231;-66
2023/01/19 08:40:35;;;;;;;18.77;12.53;;;1.20;99.90;;;;;;5048194;28;20268;-66
2023/01/19 08:43:07;;;;;;;18.10;12.90;;;1.20;99.90;;;;;;5036544;28;20215;-69
2023/01/19 08:45:36;;;;;;;16.33;13.00;;;1.20;1.00;;;;;;5022411;28;20208;-71
2023/01/19 08:48:05;;;;;;;17.40;12.17;;;1.30;96.10;;;;;;5005586;28;20608;-66
2023/01/19 08:50:33;;;;;;;20.17;13.23;;;1.30;99.90;;;;;;5036681;28;20691;-66
2023/01/19 08:53:02;;;;;;;17.80;12.93;;;1.30;99.90;;;;;;5033721;28;20265;-68
2023/01/19 08:55:29;;;;;;;22.30;13.97;;;1.30;99.90;;;;;;5037784;28;20215;-66
2023/01/19 08:57:58;;;;;;;21.60;13.93;;;1.30;72.90;;;;;;5036270;28;20498;-66
2023/01/19 09:00:26;;;;;;;21.90;15.30;;;1.30;1.00;;;;;;5033603;28;20747;-66
2023/01/19 09:02:53;;;;;;;21.90;13.70;;;1.40;1.00;;;;;;5043896;28;20277;-66
2023/01/19 09:05:21;;;;;;;26.23;15.77;;;1.40;99.90;;;;;;5037333;28;20207;-66
2023/01/19 09:07:48;;;;;;;23.50;16.20;;;1.40;1.00;;;;;;5035876;28;20216;-66
2023/01/19 09:10:16;;;;;;;34.63;18.33;;;1.50;99.90;;;;;;5038108;28;20307;-67
2023/01/19 09:12:45;;;;;;;31.70;20.60;;;1.60;1.00;;;;;;5038435;28;20195;-67
2023/01/19 09:15:13;;;;;;;26.07;17.50;;;1.60;1.00;;;;;;5034532;28;20242;-66
2023/01/19 09:17:41;;;;;;;28.63;18.10;;;1.60;99.90;;;;;;5020572;28;20197;-66
2023/01/19 09:20:08;;;;;;;28.60;19.40;;;1.70;99.90;;;;;;5038494;28;20223;-67
2023/01/19 09:22:36;;;;;;;27.30;19.00;;;1.70;99.90;;;;;;5036595;28;21299;-67
2023/01/19 09:25:03;;;;;;;26.30;18.60;;;1.70;99.90;;;;;;5036362;28;20209;-67
2023/01/19 09:27:30;;;;;;;31.37;19.33;;;1.70;99.90;;;;;;5021843;28;20213;-67
2023/01/19 09:29:57;;;;;;;33.80;20.93;;;1.70;1.00;;;;;;5043472;28;20270;-67
2023/01/19 09:32:24;;;;;;;31.43;21.07;;;1.70;72.90;;;;;;5030961;28;20643;-67
2023/01/19 09:34:52;;;;;;;31.97;21.10;;;1.70;56.00;;;;;;5023639;28;20202;-67
2023/01/19 09:37:19;;;;;;;31.57;19.70;;;1.70;99.90;;;;;;5040154;28;20195;-70
2023/01/19 09:39:46;;;;;;;28.10;19.00;;;1.70;80.40;;;;;;5038974;28;20191;-67
2023/01/19 09:42:32;;;;;;;25.70;18.27;;;1.60;1.00;;;;;;5054254;28;20232;-67
2023/01/19 09:45:00;;;;;;;28.53;19.93;;;1.60;99.90;;;;;;5037180;28;20536;-66
2023/01/19 09:47:29;;;;;;;28.90;18.80;;;1.50;99.90;;;;;;5040836;28;20686;-66
2023/01/19 09:50:04;;;;;;;32.80;21.20;;;1.50;99.90;;;;;;5053666;28;20210;-68
2023/01/19 09:52:36;;;;;;;34.53;21.80;;;1.50;99.90;;;;;;5019065;28;20287;-68
2023/01/19 09:55:03;;;;;;;31.93;20.47;;;1.50;99.90;;;;;;5024590;28;20195;-68
2023/01/19 09:57:31;;;;;;;31.97;21.57;;;1.50;99.90;;;;;;5055517;28;20544;-67
2023/01/19 09:59:58;;;;;;;35.43;23.00;;;1.40;1.00;;;;;;5020910;28;20222;-68
2023/01/19 10:02:35;;;;;;;38.40;23.87;;;1.40;1.00;;;;;;5044273;28;20210;-68
2023/01/19 10:05:11;;;;;;;39.53;25.03;;;1.50;1.00;;;;;;5022844;28;20310;-67
2023/01/19 10:08:02;;;;;;;41.50;24.37;;;1.50;1.00;;;;;;5055999;28;20837;-67
2023/01/19 10:10:34;;;;;;;42.43;24.80;;;1.50;1.00;;;;;;5028291;28;20722;-67
2023/01/19 10:13:07;;;;;;;39.33;24.53;;;1.60;1.00;;;;;;5056782;28;20215;-68
2023/01/19 10:15:48;;;;;;;41.00;25.47;;;1.70;1.00;;;;;;5023499;28;20252;-68
2023/01/19 10:18:41;;;;;;;44.80;27.50;;;1.70;1.00;;;;;;5055251;28;20205;-69
2023/01/19 10:21:13;;;;;;;47.83;29.80;;;1.80;1.00;;;;;;5054206;28;20192;-67
2023/01/19 10:23:43;;;;;;;52.60;28.80;;;1.80;1.00;;;;;;5022256;28;20247;-68
2023/01/19 10:26:22;;;;;;;61.77;31.73;;;1.90;1.00;;;;;;5052572;28;20675;-72
2023/01/19 10:28:54;;;;;;;62.73;33.67;;;2.00;1.00;;;;;;5036655;28;20708;-71
2023/01/19 10:31:22;;;;;;;51.37;32.67;;;2.10;99.90;;;;;;5050748;28;20221;-69
2023/01/19 10:33:51;;;;;;;57.70;32.97;;;2.20;99.90;;;;;;5058013;28;20218;-67
2023/01/19 10:36:24;;;;;;;63.67;33.40;;;2.30;99.90;;;;;;5055956;28;20199;-67
2023/01/19 10:38:51;;;;;;;51.73;32.77;;;2.30;99.90;;;;;;5040086;28;20686;-67
2023/01/19 10:41:25;;;;;;;53.77;32.17;;;2.40;99.90;;;;;;5055864;28;20204;-67
2023/01/19 10:44:03;;;;;;;57.23;33.80;;;2.40;1.00;;;;;;5057380;28;20219;-68
2023/01/19 10:46:32;;;;;;;52.23;32.57;;;2.50;1.00;;;;;;5055073;28;20207;-67
2023/01/19 10:49:00;;;;;;;54.23;30.20;;;2.60;1.00;;;;;;5037082;28;20198;-67
2023/01/19 10:51:27;;;;;;;53.63;32.23;;;2.70;99.90;;;;;;5035697;28;20231;-67
2023/01/19 10:54:03;;;;;;;54.63;33.73;;;2.70;1.00;;;;;;5052741;28;20265;-68
2023/01/19 10:56:35;;;;;;;56.60;33.60;;;2.80;1.00;;;;;;5056506;28;20202;-68
2023/01/19 10:59:05;;;;;;;58.97;35.37;;;2.80;1.00;;;;;;5057491;28;20201;-67
2023/01/19 11:01:35;;;;;;;59.10;34.67;;;2.80;1.00;;;;;;5023201;28;20675;-68
2023/01/19 11:04:26;;;;;;;62.97;38.70;;;2.90;1.00;;;;;;5030050;28;20218;-68
2023/01/19 11:07:13;;;;;;;52.40;33.07;;;2.90;1.00;;;;;;5052553;28;20257;-68
2023/01/19 11:09:40;;;;;;;54.33;33.70;;;2.90;1.00;;;;;;5035498;28;20212;-67
2023/01/19 11:12:19;;;;;;;60.67;34.37;;;3.00;1.00;;;;;;5051541;28;20742;-67
2023/01/19 11:14:48;;;;;;;57.33;34.50;;;3.10;1.00;;;;;;5053985;28;20210;-68
2023/01/19 11:17:22;;;;;;;48.80;31.30;;;3.10;1.00;;;;;;5035196;28;20315;-67
2023/01/19 11:19:58;;;;;;;58.07;33.17;;;3.10;1.00;;;;;;5037596;28;20763;-68
2023/01/19 11:22:33;;;;;;;56.67;32.03;;;3.00;99.90;;;;;;5055953;28;20185;-68
2023/01/19 11:25:02;;;;;;;48.13;32.43;;;3.00;1.00;;;;;;5022098;28;20303;-67
2023/01/19 11:27:33;;;;;;;54.47;33.43;;;3.10;1.00;;;;;;5036510;28;20269;-67
2023/01/19 11:30:22;;;;;;;55.50;34.57;;;3.00;99.90;;;;;;5051536;28;20250;-67
2023/01/19 11:32:50;;;;;;;56.17;35.40;;;3.20;1.00;;;;;;5056042;28;20658;-68
2023/01/19 11:35:37;;;;;;;57.83;37.97;;;3.20;1.00;;;;;;5036366;28;20195;-68
2023/01/19 11:38:19;;;;;;;55.47;34.93;;;3.20;99.90;;;;;;5054000;28;20570;-68
2023/01/19 11:40:55;;;;;;;62.33;35.93;;;3.10;99.90;;;;;;5023439;28;20602;-67
2023/01/19 11:43:26;;;;;;;62.53;39.47;;;3.10;99.90;;;;;;5053100;28;20885;-68
2023/01/19 11:46:14;;;;;;;55.50;32.67;;;3.10;99.90;;;;;;5054568;28;20269;-67
2023/01/19 11:49:03;;;;;;;47.87;31.97;;;3.00;99.90;;;;;;5055130;28;20199;-67
2023/01/19 11:51:38;;;;;;;50.23;31.30;;;3.00;99.90;;;;;;5050943;28;20256;-67
2023/01/19 11:54:18;;;;;;;45.10;30.40;;;3.10;99.90;;;;;;5054763;28;20624;-68
2023/01/19 11:56:47;;;;;;;52.70;30.80;;;3.30;1.00;;;;;;5023082;28;20614;-67
2023/01/19 11:59:14;;;;;;;47.30;31.17;;;3.40;1.00;;;;;;5028492;28;20208;-68
2023/01/19 12:01:50;;;;;;;45.60;29.27;;;3.60;1.00;;;;;;5039152;28;20231;-67
2023/01/19 12:04:26;;;;;;;37.23;27.93;;;3.60;1.00;;;;;;5023924;28;20218;-69
2023/01/19 12:06:55;;;;;;;40.57;28.93;;;3.60;1.00;;;;;;5025672;28;20202;-68
2023/01/19 12:09:22;;;;;;;49.43;28.47;;;3.50;1.00;;;;;;5054270;28;20196;-66
2023/01/19 12:11:57;;;;;;;41.33;27.70;;;3.60;1.00;;;;;;5033972;28;20219;-67
2023/01/19 12:14:42;;;;;;;40.33;26.07;;;3.60;1.00;;;;;;5055022;28;20199;-67
2023/01/19 12:17:19;;;;;;;41.43;26.13;;;3.70;1.00;;;;;;5057159;28;20704;-68
2023/01/19 12:19:52;;;;;;;40.23;25.87;;;3.60;99.90;;;;;;5057296;28;20663;-67
2023/01/19 12:22:22;;;;;;;40.30;26.60;;;3.70;1.00;;;;;;5054973;28;20222;-69
2023/01/19 12:25:28;;;;;;;37.47;24.60;;;3.80;1.00;;;;;;5038190;28;21028;-69
2023/01/19 12:27:57;;;;;;;37.67;25.30;;;4.00;99.90;;;;;;5009677;28;20206;-68
2023/01/19 12:30:28;;;;;;;36.47;23.70;;;3.80;99.90;;;;;;5025362;28;20236;-68
2023/01/19 12:33:21;;;;;;;37.10;23.87;;;3.80;99.90;;;;;;5060723;28;20237;-70
2023/01/19 12:36:02;;;;;;;37.50;25.50;;;3.80;99.90;;;;;;5059214;28;20265;-68
2023/01/19 12:38:38;;;;;;;34.13;22.47;;;4.00;99.90;;;;;;5041630;28;20336;-69
2023/01/19 12:41:19;;;;;;;35.10;22.37;;;3.90;99.90;;;;;;5034559;28;20190;-67
2023/01/19 12:43:47;;;;;;;33.47;21.23;;;3.80;99.90;;;;;;5036078;28;20558;-69
2023/01/19 12:46:22;;;;;;;36.20;23.67;;;3.60;99.90;;;;;;5055676;28;20210;-69
2023/01/19 12:48:49;;;;;;;39.03;24.23;;;3.50;99.90;;;;;;5040149;28;20568;-69
2023/01/19 12:51:24;;;;;;;36.93;23.20;;;3.50;99.90;;;;;;5056896;28;20686;-69
2023/01/19 12:53:56;;;;;;;42.10;24.77;;;3.50;99.90;;;;;;5059074;28;20191;-69
2023/01/19 12:56:29;;;;;;;42.13;23.63;;;3.60;99.90;;;;;;5035000;28;20344;-69
2023/01/19 12:58:57;;;;;;;38.60;24.20;;;3.60;99.90;;;;;;5053101;28;20657;-68
2023/01/19 13:01:25;;;;;;;43.10;24.13;;;3.50;99.90;;;;;;5040597;28;20230;-68
2023/01/19 13:04:08;;;;;;;40.30;24.23;;;3.40;99.90;;;;;;5039660;28;20235;-72
2023/01/19 13:06:47;;;;;;;41.70;25.07;;;3.40;99.90;;;;;;5038761;28;20203;-69
2023/01/19 13:09:35;;;;;;;42.93;24.80;;;3.50;1.00;;;;;;5059053;28;20662;-68
2023/01/19 13:12:25;;;;;;;37.90;24.63;;;3.40;99.90;;;;;;5053615;28;20289;-68